Time;durP1;ratioP1;P1;durP2;ratioP2;P2;SDS_P1;SDS_P2;PMS_P1;PMS_P2;Temp;Humidity;BMP_temperature;BMP_pressure;BME280_temperature;BME280_humidity;BME280_pressure;Samples;Min_cycle;Max_cycle;Signal;HPM_P1;HPM_P2
2023/07/02 00:00:05;;;;;;;0.90;0.80;;;;;;;20.23;100.00;98699.91;105499;1256;60563;-47
2023/07/02 00:02:38;;;;;;;1.30;0.90;;;;;;;20.24;100.00;98700.57;105666;1253;60552;-48
2023/07/02 00:05:06;;;;;;;0.70;0.70;;;;;;;20.25;100.00;98695.91;104978;1251;72676;-50
2023/07/02 00:07:35;;;;;;;0.70;0.70;;;;;;;20.25;100.00;98692.93;105564;1253;66967;-49
2023/07/02 00:10:05;;;;;;;1.00;0.90;;;;;;;20.26;100.00;98690.89;105251;1258;71352;-49
2023/07/02 00:12:32;;;;;;;1.20;0.80;;;;;;;20.26;100.00;98689.59;105349;1256;62209;-47
2023/07/02 00:15:00;;;;;;;1.50;0.90;;;;;;;20.26;100.00;98696.98;105052;1251;60442;-50
2023/07/02 00:17:28;;;;;;;2.40;0.90;;;;;;;20.28;100.00;98696.31;105040;1251;73902;-49
2023/07/02 00:19:55;;;;;;;2.90;0.90;;;;;;;20.28;100.00;98697.03;105450;1254;66755;-49
2023/07/02 00:22:23;;;;;;;0.90;0.90;;;;;;;20.28;100.00;98698.52;104971;1253;72677;-48
2023/07/02 00:24:51;;;;;;;1.00;0.80;;;;;;;20.28;100.00;98693.95;105061;1252;60549;-51
2023/07/02 00:27:19;;;;;;;1.20;0.80;;;;;;;20.27;100.00;98697.27;105393;1256;60418;-49
2023/07/02 00:29:46;;;;;;;1.20;0.90;;;;;;;20.26;100.00;98697.80;105000;1253;74286;-48
2023/07/02 00:32:14;;;;;;;0.80;0.80;;;;;;;20.25;100.00;98703.20;105286;1253;66746;-48
2023/07/02 00:34:41;;;;;;;1.30;1.00;;;;;;;20.24;100.00;98703.09;104947;1256;72443;-49
2023/07/02 00:37:08;;;;;;;1.50;1.40;;;;;;;20.23;100.00;98710.67;105005;1251;61655;-50
2023/07/02 00:39:36;;;;;;;0.90;0.90;;;;;;;20.22;100.00;98711.11;105031;1256;60472;-47
2023/07/02 00:42:04;;;;;;;1.40;0.80;;;;;;;20.22;100.00;98709.90;105159;1253;72695;-47
2023/07/02 00:44:32;;;;;;;3.80;1.00;;;;;;;20.20;100.00;98709.14;105225;1251;68039;-50
2023/07/02 00:46:59;;;;;;;1.00;0.90;;;;;;;20.19;100.00;98713.29;105007;1258;73098;-50
2023/07/02 00:49:27;;;;;;;1.50;1.00;;;;;;;20.18;100.00;98710.14;104815;1252;62174;-51
2023/07/02 00:51:55;;;;;;;1.80;0.80;;;;;;;20.14;100.00;98708.55;104951;1253;60419;-50
2023/07/02 00:54:23;;;;;;;2.10;0.80;;;;;;;20.11;100.00;98706.44;104927;1251;73819;-50
2023/07/02 00:56:50;;;;;;;1.10;0.90;;;;;;;20.11;100.00;98705.06;105992;1253;67867;-50
2023/07/02 00:59:17;;;;;;;2.10;0.90;;;;;;;20.09;100.00;98703.00;104786;1253;302633;-49
2023/07/02 01:03:14;;;;;;;1.50;1.00;;;;;;;20.11;100.00;98708.67;101857;1295;600328;-49
2023/07/02 01:05:42;;;;;;;1.10;1.00;;;;;;;20.08;100.00;98714.05;103972;1267;60631;-49
2023/07/02 01:08:11;;;;;;;1.10;1.00;;;;;;;20.08;100.00;98713.67;104078;1267;59712;-47
2023/07/02 01:10:39;;;;;;;3.20;1.00;;;;;;;20.08;100.00;98711.77;104188;1272;70993;-47
2023/07/02 01:13:09;;;;;;;2.10;0.90;;;;;;;20.07;100.00;98709.31;103946;1267;66586;-49
2023/07/02 01:15:37;;;;;;;1.10;1.00;;;;;;;20.04;100.00;98706.86;103996;1267;72681;-50
2023/07/02 01:18:05;;;;;;;0.90;0.90;;;;;;;20.02;100.00;98709.34;104157;1267;188150;-49
2023/07/02 01:20:32;;;;;;;1.00;0.90;;;;;;;20.01;100.00;98706.19;104379;1269;59337;-48
2023/07/02 01:23:03;;;;;;;3.80;1.00;;;;;;;20.01;100.00;98708.20;104119;1267;71097;-48
2023/07/02 01:25:30;;;;;;;2.90;0.80;;;;;;;20.00;100.00;98710.45;104196;1264;68067;-48
2023/07/02 01:27:58;;;;;;;1.10;0.90;;;;;;;20.01;100.00;98710.05;104193;1267;72387;-49
2023/07/02 01:30:26;;;;;;;3.80;1.00;;;;;;;20.02;100.00;98705.04;108286;1264;62377;-50
2023/07/02 01:32:53;;;;;;;1.10;0.90;;;;;;;20.02;100.00;98704.09;108311;1264;58789;-49
2023/07/02 01:35:20;;;;;;;1.50;1.00;;;;;;;20.03;100.00;98701.98;108546;1262;71720;-50
2023/07/02 01:37:48;;;;;;;1.50;0.90;;;;;;;20.04;100.00;98697.89;108448;1264;66345;-50
2023/07/02 01:40:15;;;;;;;1.80;1.10;;;;;;;20.05;100.00;98694.89;108345;1266;73134;-49
2023/07/02 01:42:43;;;;;;;1.30;1.20;;;;;;;20.06;100.00;98693.52;108469;1264;61651;-49
2023/07/02 01:45:10;;;;;;;7.50;1.20;;;;;;;20.08;100.00;98694.82;108467;1264;60561;-49
2023/07/02 01:47:38;;;;;;;0.80;0.80;;;;;;;20.09;100.00;98693.77;105371;1269;71770;-48
2023/07/02 01:50:06;;;;;;;0.90;0.90;;;;;;;20.10;100.00;98692.94;108527;1266;66303;-49
2023/07/02 01:52:34;;;;;;;1.10;0.80;;;;;;;20.10;100.00;98693.52;108496;1264;72622;-49
2023/07/02 01:55:02;;;;;;;2.00;0.90;;;;;;;20.10;100.00;98693.13;106271;1264;61717;-47
2023/07/02 01:57:30;;;;;;;1.40;1.10;;;;;;;20.11;100.00;98695.55;108397;1264;59367;-49
2023/07/02 01:59:58;;;;;;;1.50;1.00;;;;;;;20.12;100.00;98701.26;108316;1263;72990;-49
2023/07/02 02:02:25;;;;;;;1.10;0.90;;;;;;;20.13;100.00;98703.17;104357;1267;66710;-48
2023/07/02 02:04:53;;;;;;;1.20;1.00;;;;;;;20.13;100.00;98702.77;104326;1269;71934;-47
2023/07/02 02:07:20;;;;;;;1.60;1.00;;;;;;;20.14;100.00;98708.55;104062;1269;62319;-48
2023/07/02 02:09:47;;;;;;;1.30;1.10;;;;;;;20.14;100.00;98705.84;104087;1264;59755;-49
2023/07/02 02:12:15;;;;;;;2.20;0.90;;;;;;;20.13;100.00;98704.64;104305;1264;71706;-49
2023/07/02 02:14:42;;;;;;;2.10;1.30;;;;;;;20.13;100.00;98704.51;103969;1269;67525;-49
2023/07/02 02:17:09;;;;;;;1.00;0.90;;;;;;;20.12;100.00;98708.91;104125;1263;72702;-48
2023/07/02 02:19:37;;;;;;;1.40;0.80;;;;;;;20.10;100.00;98701.30;108340;1263;60450;-48
2023/07/02 02:22:04;;;;;;;1.90;0.90;;;;;;;20.09;100.00;98704.53;105060;1269;59653;-48
2023/07/02 02:24:33;;;;;;;2.30;0.90;;;;;;;20.08;100.00;98706.78;107282;1257;72929;-48
2023/07/02 02:27:01;;;;;;;1.80;1.00;;;;;;;20.07;100.00;98706.58;104739;1259;66637;-49
2023/07/02 02:29:30;;;;;;;1.00;0.90;;;;;;;20.06;100.00;98708.48;104999;1254;72771;-48
2023/07/02 02:31:57;;;;;;;2.00;1.00;;;;;;;20.05;100.00;98700.02;104829;1260;61359;-49
2023/07/02 02:34:24;;;;;;;1.50;0.90;;;;;;;20.05;100.00;98697.63;104878;1259;60005;-48
2023/07/02 02:36:52;;;;;;;1.20;1.10;;;;;;;20.05;100.00;98701.86;104892;1255;73023;-48
2023/07/02 02:39:19;;;;;;;1.20;1.10;;;;;;;20.06;100.00;98702.00;104855;1258;67536;-49
2023/07/02 02:41:46;;;;;;;3.00;0.90;;;;;;;20.06;100.00;98701.77;104878;1259;71383;-49
2023/07/02 02:44:15;;;;;;;6.40;1.00;;;;;;;20.05;100.00;98697.96;104761;1257;60862;-49
2023/07/02 02:46:42;;;;;;;1.00;0.90;;;;;;;20.04;100.00;98699.60;104913;1259;60511;-48
2023/07/02 02:52:05;;;;;;;1.40;1.10;;;;;;;20.03;100.00;98705.63;101634;1289;601455;-48
2023/07/02 02:54:33;;;;;;;2.50;1.20;;;;;;;20.00;100.00;98708.50;108220;1270;57810;-50
2023/07/02 02:57:00;;;;;;;1.70;1.10;;;;;;;19.99;100.00;98704.30;108220;1266;60097;-49
2023/07/02 02:59:27;;;;;;;1.30;1.00;;;;;;;19.99;100.00;98701.52;108363;1262;71002;-50
2023/07/02 03:01:55;;;;;;;1.20;1.10;;;;;;;19.99;100.00;98696.42;108374;1262;66417;-50
2023/07/02 03:04:24;;;;;;;0.90;0.90;;;;;;;20.00;100.00;98691.25;108408;1262;71206;-49
2023/07/02 03:06:52;;;;;;;1.10;1.00;;;;;;;20.01;100.00;98695.66;108310;1261;272264;-49
2023/07/02 03:09:20;;;;;;;1.30;1.20;;;;;;;20.03;100.00;98695.42;108563;1262;60734;-49
2023/07/02 03:11:47;;;;;;;0.90;0.90;;;;;;;20.05;100.00;98695.85;107740;1260;72225;-47
2023/07/02 03:14:15;;;;;;;0.90;0.80;;;;;;;20.05;100.00;98696.94;104574;1256;66417;-47
2023/07/02 03:16:42;;;;;;;1.70;1.10;;;;;;;20.07;100.00;98695.14;104686;1256;72793;-47
2023/07/02 03:19:10;;;;;;;1.20;1.00;;;;;;;20.09;100.00;98692.44;104679;1259;61527;-49
2023/07/02 03:21:37;;;;;;;1.70;1.00;;;;;;;20.12;100.00;98686.02;104603;1256;59789;-48
2023/07/02 03:24:05;;;;;;;1.90;0.90;;;;;;;20.14;100.00;98687.41;104799;1256;73081;-48
2023/07/02 03:26:32;;;;;;;2.30;1.00;;;;;;;20.17;100.00;98689.49;104708;1262;66728;-48
2023/07/02 03:28:59;;;;;;;1.90;1.20;;;;;;;20.19;100.00;98690.19;104503;1262;71480;-50
2023/07/02 03:31:27;;;;;;;1.00;0.90;;;;;;;20.21;100.00;98689.23;104660;1256;60616;-49
2023/07/02 03:33:54;;;;;;;1.90;1.10;;;;;;;20.23;100.00;98687.92;104685;1262;60073;-49
2023/07/02 03:36:21;;;;;;;0.90;0.90;;;;;;;20.26;100.00;98687.04;104522;1257;73111;-48
2023/07/02 03:38:49;;;;;;;1.60;1.10;;;;;;;20.28;100.00;98689.17;104835;1257;67894;-48
2023/07/02 03:41:16;;;;;;;2.10;1.00;;;;;;;20.30;100.00;98689.30;104762;1257;72720;-49
2023/07/02 03:43:44;;;;;;;1.10;1.00;;;;;;;20.33;100.00;98685.73;104633;1256;61777;-49
2023/07/02 03:46:11;;;;;;;3.60;1.10;;;;;;;20.37;100.00;98682.64;104798;1259;60123;-48
2023/07/02 03:48:38;;;;;;;2.70;1.20;;;;;;;20.42;100.00;98687.83;104773;1256;73540;-48
2023/07/02 03:51:06;;;;;;;3.80;1.00;;;;;;;20.46;100.00;98687.67;104801;1260;66299;-49
2023/07/02 03:53:33;;;;;;;1.60;0.90;;;;;;;20.53;100.00;98682.59;104799;1261;73175;-49
2023/07/02 03:56:00;;;;;;;2.40;0.90;;;;;;;20.60;100.00;98681.11;104787;1260;60405;-49
2023/07/02 03:58:28;;;;;;;1.00;0.90;;;;;;;20.67;100.00;98681.81;104814;1256;60026;-50
2023/07/02 04:00:56;;;;;;;2.00;0.90;;;;;;;20.73;100.00;98683.27;104745;1260;72994;-49
2023/07/02 04:03:23;;;;;;;1.70;1.30;;;;;;;20.80;100.00;98686.27;104802;1256;67066;-50
2023/07/02 04:05:50;;;;;;;2.70;1.00;;;;;;;20.86;100.00;98687.77;104849;1262;72702;-49
2023/07/02 04:08:20;;;;;;;3.00;1.20;;;;;;;20.92;100.00;98684.20;104765;1256;60440;-48
2023/07/02 04:10:48;;;;;;;1.30;1.00;;;;;;;20.98;100.00;98687.59;104914;1258;61278;-50
2023/07/02 04:13:16;;;;;;;2.30;1.00;;;;;;;21.03;100.00;98684.45;104630;1259;72971;-49
2023/07/02 04:15:44;;;;;;;1.50;0.90;;;;;;;21.09;100.00;98682.36;104765;1257;65155;-48
2023/07/02 04:18:11;;;;;;;1.30;1.20;;;;;;;21.15;100.00;98682.02;104767;1256;72672;-48
2023/07/02 04:20:38;;;;;;;1.10;1.00;;;;;;;21.24;100.00;98682.98;104600;1260;61675;-48
2023/07/02 04:23:06;;;;;;;1.30;1.20;;;;;;;21.31;100.00;98684.54;104714;1261;59658;-50
2023/07/02 04:25:33;;;;;;;1.10;1.00;;;;;;;21.39;100.00;98683.42;104796;1257;71792;-49
2023/07/02 04:28:20;;;;;;;3.30;1.40;;;;;;;21.48;100.00;98684.60;104437;1261;67946;-49
2023/07/02 04:30:49;;;;;;;1.10;1.00;;;;;;;21.57;100.00;98688.83;104681;1261;72461;-49
2023/07/02 04:33:17;;;;;;;1.30;1.20;;;;;;;21.63;100.00;98683.77;104580;1256;60052;-49
2023/07/02 04:35:45;;;;;;;1.40;1.10;;;;;;;21.68;100.00;98682.02;104867;1261;59987;-48
2023/07/02 04:38:12;;;;;;;2.60;1.30;;;;;;;21.72;100.00;98683.95;104784;1259;72956;-48
2023/07/02 04:40:41;;;;;;;2.30;1.10;;;;;;;21.77;100.00;98683.61;104609;1257;66698;-49
2023/07/02 04:43:09;;;;;;;1.20;1.00;;;;;;;21.81;100.00;98679.91;105506;1256;71906;-48
2023/07/02 04:45:37;;;;;;;1.90;1.40;;;;;;;21.83;100.00;98678.52;104607;1259;62628;-48
2023/07/02 04:48:05;;;;;;;1.20;1.10;;;;;;;21.88;100.00;98677.98;104555;1256;60844;-49
2023/07/02 04:50:32;;;;;;;1.80;1.10;;;;;;;21.91;100.00;98680.19;104647;1257;72262;-49
2023/07/02 04:52:59;;;;;;;2.40;1.10;;;;;;;21.95;100.00;98677.45;104785;1260;66364;-49
2023/07/02 04:55:27;;;;;;;1.20;1.10;;;;;;;21.99;100.00;98672.44;104713;1262;71391;-50
2023/07/02 04:57:54;;;;;;;1.30;1.20;;;;;;;22.03;100.00;98669.46;104608;1260;60018;-52
2023/07/02 05:00:22;;;;;;;2.10;1.10;;;;;;;22.06;100.00;98665.92;104670;1261;62828;-49
2023/07/02 05:02:50;;;;;;;3.30;1.10;;;;;;;22.10;100.00;98667.34;104750;1255;72260;-49
2023/07/02 05:05:18;;;;;;;1.20;1.10;;;;;;;22.12;100.00;98667.21;104932;1256;66964;-49
2023/07/02 05:07:45;;;;;;;1.40;1.30;;;;;;;22.14;100.00;98665.19;105011;1257;71785;-49
2023/07/02 05:10:13;;;;;;;1.60;1.40;;;;;;;22.15;100.00;98666.50;104856;1258;61697;-49
2023/07/02 05:12:41;;;;;;;1.10;1.00;;;;;;;22.18;100.00;98664.55;104767;1253;59876;-50
2023/07/02 05:15:09;;;;;;;1.50;1.40;;;;;;;22.20;100.00;98665.01;104830;1258;73126;-50
2023/07/02 05:17:37;;;;;;;3.70;1.20;;;;;;;22.23;100.00;98664.84;105158;1256;66307;-49
2023/07/02 05:20:05;;;;;;;0.80;0.80;;;;;;;22.27;100.00;98662.65;104919;1257;71475;-52
2023/07/02 05:22:32;;;;;;;1.80;1.00;;;;;;;22.32;100.00;98662.63;105691;1258;61761;-52
2023/07/02 05:25:00;;;;;;;1.10;1.00;;;;;;;22.36;100.00;98665.57;104858;1259;60628;-51
2023/07/02 05:27:27;;;;;;;1.30;0.90;;;;;;;22.42;100.00;98662.95;104770;1253;72211;-50
2023/07/02 05:29:54;;;;;;;1.40;1.00;;;;;;;22.46;100.00;98662.09;104901;1258;66040;-51
2023/07/02 05:32:22;;;;;;;4.40;1.20;;;;;;;22.52;100.00;98662.27;105020;1258;71493;-49
2023/07/02 05:34:49;;;;;;;0.90;0.90;;;;;;;22.58;100.00;98660.54;106655;1254;60060;-49
2023/07/02 05:37:17;;;;;;;1.60;1.40;;;;;;;22.63;100.00;98657.37;105113;1260;59641;-50
2023/07/02 05:39:44;;;;;;;1.80;1.70;;;;;;;22.69;100.00;98656.77;105001;1259;73828;-50
2023/07/02 05:42:11;;;;;;;10.90;1.80;;;;;;;22.71;100.00;98656.16;104871;1254;66429;-49
2023/07/02 05:44:39;;;;;;;2.40;1.50;;;;;;;22.73;100.00;98657.56;104724;1258;71468;-49
2023/07/02 05:47:06;;;;;;;1.30;1.00;;;;;;;22.77;100.00;98655.42;104862;1259;62185;-50
2023/07/02 05:49:33;;;;;;;1.10;1.00;;;;;;;22.84;100.00;98656.64;104770;1259;60383;-49
2023/07/02 05:52:01;;;;;;;1.20;0.90;;;;;;;22.90;100.00;98655.36;104771;1254;73093;-49
2023/07/02 05:54:28;;;;;;;1.40;0.90;;;;;;;22.98;100.00;98659.17;104949;1259;67516;-50
2023/07/02 05:56:56;;;;;;;1.90;0.90;;;;;;;23.06;100.00;98661.16;104958;1254;71423;-51
2023/07/02 05:59:23;;;;;;;1.30;0.90;;;;;;;23.16;100.00;98662.67;104691;1259;62746;-51
2023/07/02 06:01:50;;;;;;;1.10;1.00;;;;;;;23.27;100.00;98658.33;104854;1259;59602;-50
2023/07/02 06:04:18;;;;;;;1.80;1.00;;;;;;;23.36;100.00;98658.14;104970;1254;71899;-51
2023/07/02 06:06:45;;;;;;;1.30;1.20;;;;;;;23.44;100.00;98656.65;104890;1259;65529;-51
2023/07/02 06:09:12;;;;;;;1.00;0.90;;;;;;;23.51;100.00;98655.11;104789;1259;73146;-51
2023/07/02 06:11:40;;;;;;;0.80;0.80;;;;;;;23.57;100.00;98651.68;104771;1259;60031;-50
2023/07/02 06:14:07;;;;;;;0.80;0.80;;;;;;;23.63;100.00;98649.56;104844;1258;59624;-49
2023/07/02 06:16:35;;;;;;;1.70;1.00;;;;;;;23.70;100.00;98648.35;105007;1258;71513;-49
2023/07/02 06:19:02;;;;;;;0.90;0.90;;;;;;;23.78;100.00;98650.04;107533;1259;67694;-50
2023/07/02 06:21:30;;;;;;;2.40;0.90;;;;;;;23.82;100.00;98646.25;104983;1259;73072;-49
2023/07/02 06:23:58;;;;;;;1.90;0.90;;;;;;;23.83;100.00;98647.75;105103;1258;59808;-48
2023/07/02 06:26:26;;;;;;;1.20;1.00;;;;;;;23.85;100.00;98642.55;104858;1259;59627;-48
2023/07/02 06:28:53;;;;;;;1.50;1.30;;;;;;;23.90;100.00;98646.57;104699;1259;73027;-49
2023/07/02 06:31:20;;;;;;;1.60;1.00;;;;;;;23.96;100.00;98645.58;104875;1259;68005;-50
2023/07/02 06:33:48;;;;;;;1.00;0.70;;;;;;;24.04;100.00;98643.17;104769;1259;71549;-51
2023/07/02 06:36:17;;;;;;;0.70;0.70;;;;;;;24.13;100.00;98641.67;105046;1259;60352;-51
2023/07/02 06:38:44;;;;;;;0.80;0.60;;;;;;;24.24;100.00;98644.11;104861;1253;60067;-51
2023/07/02 06:41:12;;;;;;;1.40;0.60;;;;;;;24.34;100.00;98642.29;104846;1253;73484;-50
2023/07/02 06:43:41;;;;;;;1.50;0.60;;;;;;;24.44;100.00;98646.17;104793;1259;67355;-51
2023/07/02 06:46:10;;;;;;;2.10;0.60;;;;;;;24.53;100.00;98644.21;104949;1257;71474;-51
2023/07/02 06:48:38;;;;;;;0.90;0.70;;;;;;;24.60;100.00;98641.10;105452;1255;60501;-50
2023/07/02 06:51:06;;;;;;;0.90;0.80;;;;;;;24.67;100.00;98639.52;104943;1258;59943;-50
2023/07/02 06:53:35;;;;;;;1.90;0.80;;;;;;;24.72;100.00;98636.21;104922;1258;71740;-49
2023/07/02 06:56:03;;;;;;;3.00;0.80;;;;;;;24.75;100.00;98632.73;104802;1259;67186;-51
2023/07/02 06:58:30;;;;;;;2.50;0.70;;;;;;;24.78;100.00;98631.97;104842;1259;72938;-51
2023/07/02 07:00:58;;;;;;;1.60;0.80;;;;;;;24.82;100.00;98633.00;105148;1258;60423;-51
2023/07/02 07:03:25;;;;;;;0.80;0.80;;;;;;;24.86;100.00;98633.38;104904;1258;60556;-50
2023/07/02 07:05:53;;;;;;;2.80;0.80;;;;;;;24.91;100.00;98630.05;104911;1259;72184;-50
2023/07/02 07:08:20;;;;;;;1.10;0.80;;;;;;;24.95;100.00;98633.40;104777;1255;66273;-51
2023/07/02 07:10:49;;;;;;;2.00;0.80;;;;;;;24.99;100.00;98630.41;104852;1261;72782;-51
2023/07/02 07:13:17;;;;;;;1.60;0.90;;;;;;;25.02;100.00;98634.48;104941;1259;60460;-51
2023/07/02 07:15:44;;;;;;;2.20;0.80;;;;;;;25.07;100.00;98631.66;104955;1255;60347;-51
2023/07/02 07:18:12;;;;;;;0.90;0.80;;;;;;;25.13;100.00;98632.23;104967;1258;73800;-51
2023/07/02 07:20:41;;;;;;;1.40;0.90;;;;;;;25.19;100.00;98629.55;105204;1255;67044;-50
2023/07/02 07:23:08;;;;;;;1.00;0.80;;;;;;;25.25;100.00;98626.83;105340;1259;73077;-52
2023/07/02 07:25:36;;;;;;;2.60;0.70;;;;;;;25.32;100.00;98625.80;104948;1258;60517;-51
2023/07/02 07:28:03;;;;;;;1.10;0.80;;;;;;;25.39;100.00;98626.31;104821;1255;60605;-51
2023/07/02 07:30:31;;;;;;;1.60;0.80;;;;;;;25.46;100.00;98626.71;105722;1258;72576;-52
2023/07/02 07:32:59;;;;;;;0.90;0.70;;;;;;;25.51;100.00;98623.09;106690;1259;66824;-51
2023/07/02 07:35:27;;;;;;;0.80;0.70;;;;;;;25.55;100.00;98623.13;104936;1258;72745;-52
2023/07/02 07:37:54;;;;;;;4.60;0.90;;;;;;;25.58;100.00;98621.77;104896;1257;60496;-49
2023/07/02 07:40:22;;;;;;;1.60;0.70;;;;;;;25.62;100.00;98628.70;104933;1261;61636;-51
2023/07/02 07:42:49;;;;;;;0.70;0.70;;;;;;;25.67;100.00;98624.77;105686;1260;73353;-50
2023/07/02 07:45:17;;;;;;;1.40;0.80;;;;;;;25.73;100.00;98623.33;104860;1259;65720;-49
2023/07/02 07:47:44;;;;;;;0.90;0.70;;;;;;;25.78;100.00;98621.85;105752;1261;73229;-51
2023/07/02 07:50:12;;;;;;;3.00;0.80;;;;;;;25.84;100.00;98624.16;104802;1259;60541;-51
2023/07/02 07:52:40;;;;;;;1.70;0.70;;;;;;;25.92;100.00;98622.46;104753;1254;60627;-49
2023/07/02 07:55:08;;;;;;;1.50;0.80;;;;;;;25.98;100.00;98617.54;104569;1260;73890;-49
2023/07/02 07:57:37;;;;;;;1.00;0.90;;;;;;;26.04;100.00;98612.79;105175;1260;67214;-50
2023/07/02 08:00:07;;;;;;;1.40;0.90;;;;;;;26.09;100.00;98615.55;104763;1257;73121;-50
2023/07/02 08:02:48;;;;;;;1.50;1.00;;;;;;;26.17;100.00;98614.39;105232;1255;60476;-49
2023/07/02 08:05:15;;;;;;;1.90;0.90;;;;;;;26.23;100.00;98613.88;104843;1265;60455;-50
2023/07/02 08:07:42;;;;;;;0.80;0.80;;;;;;;26.30;100.00;98610.39;104853;1258;75026;-50
2023/07/02 08:10:10;;;;;;;0.80;0.80;;;;;;;26.36;100.00;98608.48;104713;1254;67611;-50
2023/07/02 08:12:38;;;;;;;1.20;0.60;;;;;;;26.43;100.00;98609.08;104636;1252;72805;-49
2023/07/02 08:15:06;;;;;;;1.50;0.60;;;;;;;26.49;100.00;98606.99;104602;1254;60555;-51
2023/07/02 08:17:34;;;;;;;1.80;0.60;;;;;;;26.54;100.00;98604.14;107202;1254;60158;-51
2023/07/02 08:20:04;;;;;;;1.90;0.60;;;;;;;26.58;100.00;98605.48;106750;1253;72652;-50
2023/07/02 08:22:31;;;;;;;0.70;0.60;;;;;;;26.61;100.00;98603.59;105567;1254;66765;-50
2023/07/02 08:24:58;;;;;;;0.70;0.70;;;;;;;26.66;100.00;98602.55;104579;1253;71462;-51
2023/07/02 08:27:26;;;;;;;0.70;0.70;;;;;;;26.73;100.00;98600.25;104582;1255;60899;-51
2023/07/02 08:29:53;;;;;;;0.90;0.60;;;;;;;26.80;100.00;98599.61;104763;1254;60548;-50
2023/07/02 08:32:21;;;;;;;2.10;0.70;;;;;;;26.86;100.00;98600.56;104856;1255;74324;-48
2023/07/02 08:34:50;;;;;;;0.70;0.70;;;;;;;26.93;100.00;98604.48;104944;1264;65519;-51
2023/07/02 08:37:18;;;;;;;0.90;0.70;;;;;;;27.00;100.00;98604.10;104675;1255;73169;-51
2023/07/02 08:39:45;;;;;;;0.80;0.60;;;;;;;27.07;100.00;98604.85;109037;1254;61147;-53
2023/07/02 08:42:12;;;;;;;1.00;0.60;;;;;;;27.16;100.00;98602.25;109127;1253;60014;-52
2023/07/02 08:44:40;;;;;;;0.80;0.60;;;;;;;27.23;100.00;98604.43;109163;1254;71538;-52
2023/07/02 08:47:07;;;;;;;0.80;0.60;;;;;;;27.30;100.00;98604.20;109128;1255;65986;-52
2023/07/02 08:49:35;;;;;;;0.60;0.60;;;;;;;27.37;100.00;98608.77;109089;1255;71165;-50
2023/07/02 08:52:02;;;;;;;0.70;0.60;;;;;;;27.45;100.00;98605.48;108911;1259;59165;-52
2023/07/02 08:54:30;;;;;;;1.30;0.70;;;;;;;27.50;100.00;98602.30;109072;1254;58752;-52
2023/07/02 08:56:57;;;;;;;2.90;0.70;;;;;;;27.56;100.00;98604.00;108995;1254;72560;-50
2023/07/02 08:59:25;;;;;;;0.60;0.60;;;;;;;27.61;100.00;98603.63;109011;1254;65588;-51
2023/07/02 09:01:53;;;;;;;0.90;0.70;;;;;;;27.65;100.00;98607.38;108977;1254;73009;-52
2023/07/02 09:04:24;;;;;;;0.80;0.70;;;;;;;27.68;100.00;98597.73;108901;1254;59044;-51
2023/07/02 09:07:09;;;;;;;1.30;0.80;;;;;;;27.72;100.00;98606.83;109092;1254;58769;-51
2023/07/02 09:09:47;;;;;;;0.70;0.70;;;;;;;27.79;100.00;98606.45;109058;1254;72690;-51
2023/07/02 09:12:25;;;;;;;1.30;0.70;;;;;;;27.85;100.00;98602.92;109089;1254;65654;-51
2023/07/02 09:14:57;;;;;;;0.60;0.60;;;;;;;27.91;100.00;98606.28;109050;1254;73140;-50
2023/07/02 09:17:32;;;;;;;1.10;0.60;;;;;;;27.98;100.00;98609.73;109071;1254;58803;-51
2023/07/02 09:20:00;;;;;;;0.80;0.60;;;;;;;28.06;100.00;98608.29;108961;1254;58797;-51
2023/07/02 09:22:28;;;;;;;0.60;0.60;;;;;;;28.10;100.00;98607.02;109063;1254;73819;-51
2023/07/02 09:24:59;;;;;;;0.60;0.60;;;;;;;28.10;100.00;98610.23;108507;1256;66338;-51
2023/07/02 09:27:41;;;;;;;1.30;0.70;;;;;;;28.15;100.00;98609.41;104965;1254;72805;-49
2023/07/02 09:30:10;;;;;;;1.10;0.70;;;;;;;28.19;100.00;98606.95;105338;1255;60521;-52
2023/07/02 09:32:37;;;;;;;3.10;0.90;;;;;;;28.20;100.00;98602.78;105164;1254;60487;-52
2023/07/02 09:35:06;;;;;;;0.90;0.60;;;;;;;28.23;100.00;98600.95;104883;1259;73876;-53
2023/07/02 09:37:33;;;;;;;0.80;0.60;;;;;;;28.27;100.00;98601.88;104922;1260;66903;-51
2023/07/02 09:40:01;;;;;;;0.80;0.60;;;;;;;28.30;100.00;98599.71;104825;1254;72432;-52
2023/07/02 09:42:29;;;;;;;0.60;0.60;;;;;;;28.34;100.00;98595.73;104847;1260;60561;-52
2023/07/02 09:44:56;;;;;;;2.50;0.60;;;;;;;28.32;100.00;98592.98;105078;1260;60643;-51
2023/07/02 09:47:24;;;;;;;1.90;0.70;;;;;;;28.33;100.00;98587.23;104862;1256;71989;-51
2023/07/02 09:49:51;;;;;;;0.90;0.60;;;;;;;28.35;100.00;98587.73;105203;1254;66761;-52
2023/07/02 09:52:19;;;;;;;1.90;0.70;;;;;;;28.40;100.00;98588.88;105053;1260;73362;-52
2023/07/02 09:54:46;;;;;;;0.90;0.70;;;;;;;28.46;100.00;98584.23;104812;1259;60573;-50
2023/07/02 09:57:14;;;;;;;0.80;0.60;;;;;;;28.51;100.00;98583.98;104845;1253;60047;-51
2023/07/02 09:59:41;;;;;;;1.10;0.70;;;;;;;28.52;100.00;98578.54;104930;1254;73827;-51
2023/07/02 10:02:09;;;;;;;0.70;0.60;;;;;;;28.54;100.00;98574.66;105015;1257;67337;-51
2023/07/02 10:04:47;;;;;;;2.10;0.60;;;;;;;28.57;100.00;98576.27;105133;1258;71381;-50
2023/07/02 10:07:26;;;;;;;1.70;0.60;;;;;;;28.63;100.00;98573.10;105469;1259;60485;-50
2023/07/02 10:09:53;;;;;;;1.00;0.50;;;;;;;28.70;100.00;98568.35;105596;1253;60457;-51
2023/07/02 10:12:25;;;;;;;1.00;0.60;;;;;;;28.77;100.00;98571.83;104690;1258;73809;-51
2023/07/02 10:14:56;;;;;;;0.70;0.70;;;;;;;28.82;100.00;98567.96;104935;1259;66720;-51
2023/07/02 10:17:31;;;;;;;0.80;0.60;;;;;;;28.88;100.00;98571.68;105025;1254;71496;-51
2023/07/02 10:20:00;;;;;;;1.30;0.60;;;;;;;28.94;100.00;98568.67;105340;1254;61034;-52
2023/07/02 10:22:28;;;;;;;0.80;0.60;;;;;;;28.99;100.00;98562.39;105055;1254;60653;-51
2023/07/02 10:24:59;;;;;;;0.70;0.70;;;;;;;29.06;100.00;98559.41;105035;1253;74438;-52
2023/07/02 10:27:35;;;;;;;0.60;0.60;;;;;;;29.14;100.00;98555.29;105412;1254;65777;-51
2023/07/02 10:30:04;;;;;;;2.70;0.70;;;;;;;29.20;100.00;98556.13;105077;1254;72883;-50
2023/07/02 10:32:33;;;;;;;0.70;0.60;;;;;;;29.28;100.00;98545.98;105569;1253;59372;-51
2023/07/02 10:35:21;;;;;;;1.20;0.70;;;;;;;29.36;100.00;98548.17;104923;1253;60766;-52
2023/07/02 10:37:49;;;;;;;1.60;0.60;;;;;;;29.45;100.00;98545.06;105051;1259;73806;-52
2023/07/02 10:40:16;;;;;;;1.00;0.50;;;;;;;29.52;100.00;98543.55;104626;1254;65727;-52
2023/07/02 10:42:50;;;;;;;0.60;0.60;;;;;;;29.58;100.00;98540.11;104903;1257;71153;-52
2023/07/02 10:45:19;;;;;;;0.60;0.60;;;;;;;29.62;100.00;98538.36;105055;1254;60560;-53
2023/07/02 10:47:46;;;;;;;0.60;0.60;;;;;;;29.68;100.00;98537.55;105086;1254;60322;-52
2023/07/02 10:50:19;;;;;;;0.80;0.70;;;;;;;29.69;100.00;98529.42;105755;1257;74275;-52
2023/07/02 10:52:47;;;;;;;1.90;0.80;;;;;;;29.63;100.00;98530.16;105570;1254;66220;-50
2023/07/02 10:55:21;;;;;;;1.20;0.70;;;;;;;29.58;100.00;98528.38;105227;1258;72688;-51
2023/07/02 10:57:52;;;;;;;7.80;0.70;;;;;;;29.50;100.00;98526.17;105088;1254;60614;-51
2023/07/02 11:00:20;;;;;;;7.40;0.70;;;;;;;29.43;100.00;98521.70;105012;1254;61944;-52
2023/07/02 11:02:48;;;;;;;0.70;0.60;;;;;;;29.36;100.00;98517.17;105122;1259;73798;-51
2023/07/02 11:05:16;;;;;;;0.90;0.70;;;;;;;29.27;100.00;98510.98;105479;1258;65766;-51
2023/07/02 11:07:43;;;;;;;0.70;0.60;;;;;;;29.23;100.00;98506.59;105394;1254;73133;-50
2023/07/02 11:10:17;;;;;;;0.60;0.60;;;;;;;29.22;100.00;98505.14;105045;1254;60572;-50
2023/07/02 11:12:45;;;;;;;0.60;0.50;;;;;;;29.23;100.00;98495.76;105486;1254;60847;-51
2023/07/02 11:15:13;;;;;;;7.90;0.70;;;;;;;29.28;100.00;98491.67;104984;1254;72719;-52
2023/07/02 11:17:41;;;;;;;0.70;0.70;;;;;;;29.35;100.00;98490.05;105067;1254;66942;-52
2023/07/02 11:20:10;;;;;;;0.70;0.70;;;;;;;29.40;100.00;98487.14;105833;1257;71440;-52
2023/07/02 11:22:38;;;;;;;1.50;0.60;;;;;;;29.44;100.00;98484.38;104953;1254;60559;-50
2023/07/02 11:25:09;;;;;;;1.10;0.90;;;;;;;29.48;100.00;98485.16;104945;1254;61143;-51